Time;durP1;ratioP1;P1;durP2;ratioP2;P2;SDS_P1;SDS_P2;PMS_P1;PMS_P2;Temp;Humidity;BMP_temperature;BMP_pressure;BME280_temperature;BME280_humidity;BME280_pressure;Samples;Min_cycle;Max_cycle;Signal;HPM_P1;HPM_P2
2021/11/10 00:00:33;;;;;;;;;;;;;;;;;;5065309;28;19916;-58
2021/11/10 00:03:00;;;;;;;;;;;;;;;;;;5065567;28;20478;-58
2021/11/10 00:05:26;;;;;;;;;;;;;;;;;;5063469;28;19912;-58
2021/11/10 00:07:52;;;;;;;;;;;;;;;;;;5057370;28;20353;-58
2021/11/10 00:10:18;;;;;;;;;;;;;;;;;;5065825;28;19908;-58
2021/11/10 00:12:44;;;;;;;;;;;;;;;;;;5060539;28;19928;-58
2021/11/10 00:15:09;;;;;;;;;;;;;;;;;;5045355;28;19909;-58
2021/11/10 00:17:36;;;;;;;;;;;;;;;;;;5045056;28;20540;-58
2021/11/10 00:20:02;;;;;;;;;;;;;;;;;;5043387;28;19916;-58
2021/11/10 00:22:28;;;;;;;;;;;;;;;;;;5043591;28;19909;-58
2021/11/10 00:24:54;;;;;;;;;;;;;;;;;;5045212;28;19909;-58
2021/11/10 00:27:21;;;;;;;;;;;;;;;;;;5045368;28;20186;-58
2021/11/10 00:29:47;;;;;;;;;;;;;;;;;;5045849;28;20385;-58
2021/11/10 00:32:14;;;;;;;;;;;;;;;;;;5044382;28;19909;-57
2021/11/10 00:34:41;;;;;;;;;;;;;;;;;;5044582;28;20024;-58
2021/11/10 00:37:07;;;;;;;;;;;;;;;;;;5045139;28;20000;-58
2021/11/10 00:39:33;;;;;;;;;;;;;;;;;;5043045;28;20389;-58
2021/11/10 00:41:59;;;;;;;;;;;;;;;;;;5045072;28;19909;-58
2021/11/10 00:44:25;;;;;;;;;;;;;;;;;;5044903;28;19908;-58
2021/11/10 00:46:51;;;;;;;;;;;;;;;;;;5045626;28;19913;-57
2021/11/10 00:49:18;;;;;;;;;;;;;;;;;;5045131;28;20177;-58
2021/11/10 00:51:45;;;;;;;;;;;;;;;;;;5045185;28;19909;-58
2021/11/10 00:54:12;;;;;;;;;;;;;;;;;;5043297;28;20327;-58
2021/11/10 00:56:38;;;;;;;;;;;;;;;;;;5044923;28;19992;-58
2021/11/10 00:59:04;;;;;;;;;;;;;;;;;;5053674;28;20535;-58
2021/11/10 01:01:31;;;;;;;;;;;;;;;;;;5042947;28;19916;-57
2021/11/10 01:03:57;;;;;;;;;;;;;;;;;;5042945;28;19909;-58
2021/11/10 01:06:23;;;;;;;;;;;;;;;;;;5044189;28;19915;-58
2021/11/10 01:08:52;;;;;;;;;;;;;;;;;;5045047;28;19920;-58
2021/11/10 01:11:17;;;;;;;;;;;;;;;;;;5044653;28;20252;-58
2021/11/10 01:13:43;;;;;;;;;;;;;;;;;;5044793;28;20015;-58
2021/11/10 01:16:09;;;;;;;;;;;;;;;;;;5044770;28;19998;-58
2021/11/10 01:18:35;;;;;;;;;;;;;;;;;;5044045;28;20502;-58
2021/11/10 01:21:01;;;;;;;;;;;;;;;;;;5042077;28;19917;-58
2021/11/10 01:23:28;;;;;;;;;;;;;;;;;;5044363;28;19915;-58
2021/11/10 01:25:54;;;;;;;;;;;;;;;;;;5042414;28;19917;-58
2021/11/10 01:28:19;;;;;;;;;;;;;;;;;;5044880;28;20334;-57
2021/11/10 01:30:45;;;;;;;;;;;;;;;;;;5044417;28;19909;-58
2021/11/10 01:33:11;;;;;;;;;;;;;;;;;;5058173;28;20280;-58
2021/11/10 01:35:38;;;;;;;;;;;;;;;;;;5044273;28;19908;-58
2021/11/10 01:38:04;;;;;;;;;;;;;;;;;;5062189;28;19931;-58
2021/11/10 01:40:30;;;;;;;;;;;;;;;;;;5063569;28;19908;-58
2021/11/10 01:42:56;;;;;;;;;;;;;;;;;;5064296;28;20262;-58
2021/11/10 01:45:22;;;;;;;;;;;;;;;;;;5064375;28;19912;-58
2021/11/10 01:47:48;;;;;;;;;;;;;;;;;;5063356;28;19909;-58
2021/11/10 01:50:14;;;;;;;;;;;;;;;;;;5063807;28;19999;-58
2021/11/10 01:52:40;;;;;;;;;;;;;;;;;;5051802;28;20380;-58
2021/11/10 01:55:06;;;;;;;;;;;;;;;;;;5042533;28;19913;-58
2021/11/10 01:57:32;;;;;;;;;;;;;;;;;;5043183;28;19923;-58
2021/11/10 01:59:58;;;;;;;;;;;;;;;;;;5052462;28;19957;-58
2021/11/10 02:02:27;;;;;;;;;;;;;;;;;;5048987;28;19920;-58
2021/11/10 02:04:53;;;;;;;;;;;;;;;;;;5047965;28;19916;-58
2021/11/10 02:07:19;;;;;;;;;;;;;;;;;;5045833;28;20011;-58
2021/11/10 02:09:45;;;;;;;;;;;;;;;;;;5045884;28;19999;-58
2021/11/10 02:12:11;;;;;;;;;;;;;;;;;;5048614;28;19995;-58
2021/11/10 02:14:37;;;;;;;;;;;;;;;;;;5049209;28;19928;-57
2021/11/10 02:17:03;;;;;;;;;;;;;;;;;;5052135;28;19939;-58
2021/11/10 02:19:29;;;;;;;;;;;;;;;;;;5048725;28;19920;-58
2021/11/10 02:21:56;;;;;;;;;;;;;;;;;;5062267;28;20419;-58
2021/11/10 02:24:23;;;;;;;;;;;;;;;;;;5062989;28;19917;-57
2021/11/10 02:26:49;;;;;;;;;;;;;;;;;;5058136;28;19997;-57
2021/11/10 02:29:15;;;;;;;;;;;;;;;;;;5048755;28;19998;-58
2021/11/10 02:31:41;;;;;;;;;;;;;;;;;;5049115;28;19913;-57
2021/11/10 02:34:08;;;;;;;;;;;;;;;;;;5047545;28;19942;-57
2021/11/10 02:36:34;;;;;;;;;;;;;;;;;;5048782;28;20038;-57
2021/11/10 02:39:00;;;;;;;;;;;;;;;;;;5048733;28;20320;-57
2021/11/10 02:41:26;;;;;;;;;;;;;;;;;;5049475;28;19915;-57
2021/11/10 02:43:52;;;;;;;;;;;;;;;;;;5054140;28;19924;-57
2021/11/10 02:46:18;;;;;;;;;;;;;;;;;;5068770;28;19969;-57
2021/11/10 02:48:44;;;;;;;;;;;;;;;;;;5075528;28;19916;-57
2021/11/10 02:51:10;;;;;;;;;;;;;;;;;;5066368;28;19919;-57
2021/11/10 02:53:35;;;;;;;;;;;;;;;;;;5049233;28;19939;-57
2021/11/10 02:56:01;;;;;;;;;;;;;;;;;;5068981;28;19966;-58
2021/11/10 02:58:27;;;;;;;;;;;;;;;;;;5054705;28;19941;-57
2021/11/10 03:00:53;;;;;;;;;;;;;;;;;;5055269;28;20019;-58
2021/11/10 03:03:19;;;;;;;;;;;;;;;;;;5067840;28;19916;-58
2021/11/10 03:05:46;;;;;;;;;;;;;;;;;;5068954;28;19954;-58
2021/11/10 03:08:11;;;;;;;;;;;;;;;;;;5068891;28;20343;-57
2021/11/10 03:10:37;;;;;;;;;;;;;;;;;;5068930;28;20350;-57
2021/11/10 03:13:03;;;;;;;;;;;;;;;;;;5059945;28;19920;-57
2021/11/10 03:15:29;;;;;;;;;;;;;;;;;;5052029;28;20360;-57
2021/11/10 03:17:55;;;;;;;;;;;;;;;;;;5068674;28;19943;-57
2021/11/10 03:20:21;;;;;;;;;;;;;;;;;;5066685;28;19913;-57
2021/11/10 03:22:47;;;;;;;;;;;;;;;;;;5067850;28;19916;-58
2021/11/10 03:25:13;;;;;;;;;;;;;;;;;;5067595;28;20000;-58
2021/11/10 03:27:39;;;;;;;;;;;;;;;;;;5054285;28;19912;-58
2021/11/10 03:30:05;;;;;;;;;;;;;;;;;;5048744;28;19981;-57
2021/11/10 03:32:31;;;;;;;;;;;;;;;;;;5063096;28;19916;-57
2021/11/10 03:34:57;;;;;;;;;;;;;;;;;;5047844;28;20732;-57
2021/11/10 03:37:23;;;;;;;;;;;;;;;;;;5049974;28;19913;-57
2021/11/10 03:39:49;;;;;;;;;;;;;;;;;;5050141;28;19908;-57
2021/11/10 03:42:15;;;;;;;;;;;;;;;;;;5053589;28;20050;-57
2021/11/10 03:44:41;;;;;;;;;;;;;;;;;;5060197;28;20003;-57
2021/11/10 03:47:07;;;;;;;;;;;;;;;;;;5052913;28;19942;-57
2021/11/10 03:49:33;;;;;;;;;;;;;;;;;;5049420;28;19920;-57
2021/11/10 03:51:59;;;;;;;;;;;;;;;;;;5049117;28;19912;-57
2021/11/10 03:54:25;;;;;;;;;;;;;;;;;;5049476;28;19913;-57
2021/11/10 03:56:51;;;;;;;;;;;;;;;;;;5053965;28;20387;-58
2021/11/10 03:59:17;;;;;;;;;;;;;;;;;;5065859;28;19919;-58
2021/11/10 04:01:43;;;;;;;;;;;;;;;;;;5059343;28;20030;-58
2021/11/10 04:04:09;;;;;;;;;;;;;;;;;;5066811;28;19912;-57
2021/11/10 04:06:35;;;;;;;;;;;;;;;;;;5064195;28;20395;-57
2021/11/10 04:09:01;;;;;;;;;;;;;;;;;;5048885;28;19959;-57
2021/11/10 04:11:27;;;;;;;;;;;;;;;;;;5048538;28;20400;-57
2021/11/10 04:13:53;;;;;;;;;;;;;;;;;;5050031;28;19924;-57
2021/11/10 04:16:22;;;;;;;;;;;;;;;;;;5065067;28;20629;-57
2021/11/10 04:18:48;;;;;;;;;;;;;;;;;;5068890;28;20579;-57
2021/11/10 04:21:14;;;;;;;;;;;;;;;;;;5068271;28;20367;-57
2021/11/10 04:23:40;;;;;;;;;;;;;;;;;;5056676;28;19958;-57
2021/11/10 04:26:07;;;;;;;;;;;;;;;;;;5048548;28;19952;-57
2021/11/10 04:28:33;;;;;;;;;;;;;;;;;;5066699;28;19923;-57
2021/11/10 04:30:58;;;;;;;;;;;;;;;;;;5065962;28;19917;-57
2021/11/10 04:33:24;;;;;;;;;;;;;;;;;;5046835;28;19917;-57
2021/11/10 04:35:50;;;;;;;;;;;;;;;;;;5067619;28;19995;-57
2021/11/10 04:38:16;;;;;;;;;;;;;;;;;;5068318;28;19912;-57
2021/11/10 04:40:43;;;;;;;;;;;;;;;;;;5061056;28;19990;-57
2021/11/10 04:43:09;;;;;;;;;;;;;;;;;;5059271;28;19948;-57
2021/11/10 04:45:37;;;;;;;;;;;;;;;;;;5068643;28;19955;-57
2021/11/10 04:48:03;;;;;;;;;;;;;;;;;;5067258;28;19947;-57
2021/11/10 04:50:29;;;;;;;;;;;;;;;;;;5068571;28;19952;-58
2021/11/10 04:52:54;;;;;;;;;;;;;;;;;;5059487;28;19940;-57
2021/11/10 04:55:20;;;;;;;;;;;;;;;;;;5048469;28;19999;-58
2021/11/10 04:57:46;;;;;;;;;;;;;;;;;;5047823;28;19916;-58
2021/11/10 05:00:13;;;;;;;;;;;;;;;;;;5047695;28;19913;-58
2021/11/10 05:02:39;;;;;;;;;;;;;;;;;;5052190;28;20352;-57
2021/11/10 05:05:05;;;;;;;;;;;;;;;;;;5061898;28;19913;-57
2021/11/10 05:07:31;;;;;;;;;;;;;;;;;;5061718;28;19966;-57
2021/11/10 05:09:57;;;;;;;;;;;;;;;;;;5048029;28;19956;-58
2021/11/10 05:12:23;;;;;;;;;;;;;;;;;;5048144;28;19967;-58
2021/11/10 05:14:52;;;;;;;;;;;;;;;;;;5060054;28;19924;-57
2021/11/10 05:17:18;;;;;;;;;;;;;;;;;;5046949;28;20007;-57
2021/11/10 05:19:44;;;;;;;;;;;;;;;;;;5047910;28;19916;-57
2021/11/10 05:22:10;;;;;;;;;;;;;;;;;;5048332;28;19912;-57
2021/11/10 05:24:36;;;;;;;;;;;;;;;;;;5047615;28;19921;-57
2021/11/10 05:27:03;;;;;;;;;;;;;;;;;;5056817;28;19916;-57
2021/11/10 05:29:29;;;;;;;;;;;;;;;;;;5048248;28;19971;-57
2021/11/10 05:31:56;;;;;;;;;;;;;;;;;;5047331;28;19909;-57
2021/11/10 05:34:22;;;;;;;;;;;;;;;;;;5051860;28;19917;-57
2021/11/10 05:36:48;;;;;;;;;;;;;;;;;;5054808;28;19923;-57
2021/11/10 05:39:14;;;;;;;;;;;;;;;;;;5058160;28;19936;-57
2021/11/10 05:41:40;;;;;;;;;;;;;;;;;;5054314;28;19955;-57
2021/11/10 05:44:06;;;;;;;;;;;;;;;;;;5067921;28;19912;-58
2021/11/10 05:46:32;;;;;;;;;;;;;;;;;;5071346;28;19909;-57
2021/11/10 05:48:58;;;;;;;;;;;;;;;;;;5053468;28;19913;-57
2021/11/10 05:51:24;;;;;;;;;;;;;;;;;;5051624;28;19921;-57
2021/11/10 05:53:51;;;;;;;;;;;;;;;;;;5051787;28;19975;-58
2021/11/10 05:56:24;;;;;;;;;;;;;;;;;;5056806;28;19927;-57
2021/11/10 05:58:50;;;;;;;;;;;;;;;;;;5052447;28;19912;-57
2021/11/10 06:01:16;;;;;;;;;;;;;;;;;;5055069;28;19916;-57
2021/11/10 06:03:42;;;;;;;;;;;;;;;;;;5068242;28;19920;-58
2021/11/10 06:06:08;;;;;;;;;;;;;;;;;;5070811;28;19909;-57
2021/11/10 06:08:37;;;;;;;;;;;;;;;;;;5071762;28;19997;-57
2021/11/10 06:11:02;;;;;;;;;;;;;;;;;;5058942;28;20552;-57
2021/11/10 06:13:29;;;;;;;;;;;;;;;;;;5051199;28;19920;-57
2021/11/10 06:15:55;;;;;;;;;;;;;;;;;;5055838;28;19920;-57
2021/11/10 06:18:21;;;;;;;;;;;;;;;;;;5051584;28;19912;-57
2021/11/10 06:20:47;;;;;;;;;;;;;;;;;;5051303;28;19909;-57
2021/11/10 06:23:13;;;;;;;;;;;;;;;;;;5062794;28;19928;-57
2021/11/10 06:25:39;;;;;;;;;;;;;;;;;;5065467;28;19962;-57
2021/11/10 06:28:05;;;;;;;;;;;;;;;;;;5073400;28;19913;-57
2021/11/10 06:30:31;;;;;;;;;;;;;;;;;;5071227;28;19998;-57
2021/11/10 06:32:59;;;;;;;;;;;;;;;;;;5059684;28;20015;-57
2021/11/10 06:35:25;;;;;;;;;;;;;;;;;;5050879;28;19927;-57
2021/11/10 06:37:51;;;;;;;;;;;;;;;;;;5059377;28;20350;-57
2021/11/10 06:40:17;;;;;;;;;;;;;;;;;;5051031;28;19916;-57
2021/11/10 06:42:43;;;;;;;;;;;;;;;;;;5053685;28;20039;-57
2021/11/10 06:45:09;;;;;;;;;;;;;;;;;;5066517;28;19912;-57
2021/11/10 06:47:35;;;;;;;;;;;;;;;;;;5061404;28;19920;-57
2021/11/10 06:50:03;;;;;;;;;;;;;;;;;;5070263;28;19916;-57
2021/11/10 06:52:29;;;;;;;;;;;;;;;;;;5064161;28;19917;-58
2021/11/10 06:54:55;;;;;;;;;;;;;;;;;;5050923;28;19916;-58
2021/11/10 06:57:21;;;;;;;;;;;;;;;;;;5054415;28;19919;-58
2021/11/10 06:59:47;;;;;;;;;;;;;;;;;;5056630;28;20000;-57
2021/11/10 07:02:13;;;;;;;;;;;;;;;;;;5066898;28;20337;-57
2021/11/10 07:04:39;;;;;;;;;;;;;;;;;;5052766;28;19964;-58
2021/11/10 07:07:05;;;;;;;;;;;;;;;;;;5061539;28;19917;-57
2021/11/10 07:09:31;;;;;;;;;;;;;;;;;;5050715;28;19916;-57
2021/11/10 07:11:57;;;;;;;;;;;;;;;;;;5055109;28;20426;-57
2021/11/10 07:14:24;;;;;;;;;;;;;;;;;;5057903;28;20046;-57
2021/11/10 07:16:50;;;;;;;;;;;;;;;;;;5069613;28;19913;-57
2021/11/10 07:19:16;;;;;;;;;;;;;;;;;;5056985;28;19919;-57
2021/11/10 07:21:42;;;;;;;;;;;;;;;;;;5069147;28;19939;-57
2021/11/10 07:24:08;;;;;;;;;;;;;;;;;;5049979;28;19936;-57
2021/11/10 07:26:34;;;;;;;;;;;;;;;;;;5049689;28;19917;-57
2021/11/10 07:29:00;;;;;;;;;;;;;;;;;;5049859;28;19908;-57
2021/11/10 07:31:26;;;;;;;;;;;;;;;;;;5051359;28;19919;-57
2021/11/10 07:33:52;;;;;;;;;;;;;;;;;;5061884;28;19913;-57
2021/11/10 07:36:18;;;;;;;;;;;;;;;;;;5047988;28;19909;-57
2021/11/10 07:38:44;;;;;;;;;;;;;;;;;;5050043;28;19916;-58
2021/11/10 07:41:16;;;;;;;;;;;;;;;;;;5055679;28;19912;-57
2021/11/10 07:43:42;;;;;;;;;;;;;;;;;;5067887;28;19912;-57
2021/11/10 07:46:16;;;;;;;;;;;;;;;;;;5067575;28;20004;-57
2021/11/10 07:48:42;;;;;;;;;;;;;;;;;;5068421;28;20490;-58
2021/11/10 07:51:08;;;;;;;;;;;;;;;;;;5067196;28;19919;-57
2021/11/10 07:53:34;;;;;;;;;;;;;;;;;;5061189;28;20316;-58
2021/11/10 07:56:00;;;;;;;;;;;;;;;;;;5047803;28;19912;-58
2021/11/10 07:58:27;;;;;;;;;;;;;;;;;;5060196;28;19913;-58
2021/11/10 08:00:53;;;;;;;;;;;;;;;;;;5052106;28;19951;-58
2021/11/10 08:03:20;;;;;;;;;;;;;;;;;;5064119;28;19959;-58
2021/11/10 08:05:46;;;;;;;;;;;;;;;;;;5049607;28;19917;-58
2021/11/10 08:08:12;;;;;;;;;;;;;;;;;;5054294;28;20403;-58
2021/11/10 08:10:38;;;;;;;;;;;;;;;;;;5053492;28;20011;-58
2021/11/10 08:13:03;;;;;;;;;;;;;;;;;;5052807;28;19931;-58
2021/11/10 08:15:29;;;;;;;;;;;;;;;;;;5045899;28;20486;-58
2021/11/10 08:17:55;;;;;;;;;;;;;;;;;;5045971;28;19915;-58
2021/11/10 08:20:21;;;;;;;;;;;;;;;;;;5047093;28;21391;-58
2021/11/10 08:22:47;;;;;;;;;;;;;;;;;;5058572;28;19913;-58
2021/11/10 08:25:13;;;;;;;;;;;;;;;;;;5054462;28;19920;-58
2021/11/10 08:27:39;;;;;;;;;;;;;;;;;;5060968;28;20303;-58
2021/11/10 08:30:05;;;;;;;;;;;;;;;;;;5046782;28;19919;-57
2021/11/10 08:32:32;;;;;;;;;;;;;;;;;;5053810;28;19912;-58
2021/11/10 08:34:58;;;;;;;;;;;;;;;;;;5055419;28;19951;-58
2021/11/10 08:37:24;;;;;;;;;;;;;;;;;;5057612;28;20001;-58
2021/11/10 08:39:50;;;;;;;;;;;;;;;;;;5062818;28;19974;-57
2021/11/10 08:42:16;;;;;;;;;;;;;;;;;;5060287;28;19913;-57
2021/11/10 08:44:46;;;;;;;;;;;;;;;;;;5046937;28;19912;-57
2021/11/10 08:47:12;;;;;;;;;;;;;;;;;;5049924;28;20023;-58
2021/11/10 08:49:37;;;;;;;;;;;;;;;;;;5056395;28;20049;-58
2021/11/10 08:52:03;;;;;;;;;;;;;;;;;;5048364;28;20533;-58
2021/11/10 08:54:29;;;;;;;;;;;;;;;;;;5060106;28;19921;-57
2021/11/10 08:56:55;;;;;;;;;;;;;;;;;;5048912;28;19913;-58
2021/11/10 08:59:21;;;;;;;;;;;;;;;;;;5067219;28;19999;-57
2021/11/10 09:01:47;;;;;;;;;;;;;;;;;;5053930;28;19912;-58
2021/11/10 09:04:15;;;;;;;;;;;;;;;;;;5046176;28;19916;-58
2021/11/10 09:06:41;;;;;;;;;;;;;;;;;;5046864;28;20424;-58
2021/11/10 09:09:07;;;;;;;;;;;;;;;;;;5046136;28;19999;-58
2021/11/10 09:11:33;;;;;;;;;;;;;;;;;;5051425;28;19935;-58
2021/11/10 09:13:59;;;;;;;;;;;;;;;;;;5048945;28;19920;-58
2021/11/10 09:16:25;;;;;;;;;;;;;;;;;;5053714;28;19916;-58
2021/11/10 09:18:51;;;;;;;;;;;;;;;;;;5059183;28;19931;-58
2021/11/10 09:21:17;;;;;;;;;;;;;;;;;;5060673;28;19951;-58
2021/11/10 09:23:43;;;;;;;;;;;;;;;;;;5066518;28;20201;-58
2021/11/10 09:26:09;;;;;;;;;;;;;;;;;;5066149;28;19915;-58
2021/11/10 09:28:36;;;;;;;;;;;;;;;;;;5065576;28;20395;-58
2021/11/10 09:31:02;;;;;;;;;;;;;;;;;;5060857;28;19913;-57
2021/11/10 09:33:30;;;;;;;;;;;;;;;;;;5052260;28;19912;-57
2021/11/10 09:35:56;;;;;;;;;;;;;;;;;;5049669;28;19913;-57
2021/11/10 09:38:23;;;;;;;;;;;;;;;;;;5057981;28;20341;-57
2021/11/10 09:40:50;;;;;;;;;;;;;;;;;;5061478;28;19916;-58
2021/11/10 09:43:16;;;;;;;;;;;;;;;;;;5053377;28;20338;-58
2021/11/10 09:45:42;;;;;;;;;;;;;;;;;;5047043;28;20019;-58
2021/11/10 09:48:09;;;;;;;;;;;;;;;;;;5050823;28;19962;-58
2021/11/10 09:50:36;;;;;;;;;;;;;;;;;;5062231;28;20011;-58
2021/11/10 09:53:03;;;;;;;;;;;;;;;;;;5056883;28;19970;-58
2021/11/10 09:55:28;;;;;;;;;;;;;;;;;;5060608;28;19956;-58
2021/11/10 09:57:54;;;;;;;;;;;;;;;;;;5060543;28;20005;-58
2021/11/10 10:00:21;;;;;;;;;;;;;;;;;;5064042;28;20033;-58
2021/11/10 10:02:48;;;;;;;;;;;;;;;;;;5051509;28;20385;-58
2021/11/10 10:05:15;;;;;;;;;;;;;;;;;;5057675;28;19917;-58
2021/11/10 10:07:42;;;;;;;;;;;;;;;;;;5065833;28;20005;-58
2021/11/10 10:10:08;;;;;;;;;;;;;;;;;;5085311;28;19916;-58
2021/11/10 10:12:34;;;;;;;;;;;;;;;;;;5069222;28;19920;-58
2021/11/10 10:15:00;;;;;;;;;;;;;;;;;;5050877;28;19939;-58
2021/11/10 10:17:26;;;;;;;;;;;;;;;;;;5055327;28;19916;-57
2021/11/10 10:19:52;;;;;;;;;;;;;;;;;;5065060;28;20341;-58
2021/11/10 10:22:18;;;;;;;;;;;;;;;;;;5060186;28;19912;-58
2021/11/10 10:24:43;;;;;;;;;;;;;;;;;;5074936;28;19963;-58
2021/11/10 10:27:09;;;;;;;;;;;;;;;;;;5081001;28;19912;-58
2021/11/10 10:29:36;;;;;;;;;;;;;;;;;;5064090;28;19938;-58
2021/11/10 10:32:02;;;;;;;;;;;;;;;;;;5066352;28;20391;-58
2021/11/10 10:34:28;;;;;;;;;;;;;;;;;;5068182;28;19919;-57
2021/11/10 10:36:54;;;;;;;;;;;;;;;;;;5068554;28;19916;-58
2021/11/10 10:39:20;;;;;;;;;;;;;;;;;;5062739;28;19970;-58
2021/11/10 10:41:46;;;;;;;;;;;;;;;;;;5068406;28;20413;-58
2021/11/10 10:44:12;;;;;;;;;;;;;;;;;;5061861;28;19912;-58
2021/11/10 10:46:38;;;;;;;;;;;;;;;;;;5064515;28;19912;-58
2021/11/10 10:49:05;;;;;;;;;;;;;;;;;;5068185;28;19909;-58
2021/11/10 10:51:31;;;;;;;;;;;;;;;;;;5068912;28;20358;-58
2021/11/10 10:53:57;;;;;;;;;;;;;;;;;;5067984;28;19916;-58
2021/11/10 10:56:23;;;;;;;;;;;;;;;;;;5068249;28;19912;-58
2021/11/10 10:58:49;;;;;;;;;;;;;;;;;;5067055;28;19920;-58
2021/11/10 11:01:16;;;;;;;;;;;;;;;;;;5065824;28;20404;-58
2021/11/10 11:03:41;;;;;;;;;;;;;;;;;;5067623;28;19916;-58
2021/11/10 11:06:08;;;;;;;;;;;;;;;;;;5067564;28;19909;-58
2021/11/10 11:08:34;;;;;;;;;;;;;;;;;;5068344;28;20456;-58
2021/11/10 11:11:00;;;;;;;;;;;;;;;;;;5056278;28;19920;-58
2021/11/10 11:13:27;;;;;;;;;;;;;;;;;;5058515;28;20047;-58
2021/11/10 11:15:56;;;;;;;;;;;;;;;;;;5067851;28;19923;-58
2021/11/10 11:18:22;;;;;;;;;;;;;;;;;;5063482;28;19920;-58
2021/11/10 11:20:49;;;;;;;;;;;;;;;;;;5058544;28;19913;-58
2021/11/10 11:23:16;;;;;;;;;;;;;;;;;;5055396;28;20318;-58
2021/11/10 11:25:42;;;;;;;;;;;;;;;;;;5061450;28;19924;-58
2021/11/10 11:28:09;;;;;;;;;;;;;;;;;;5066498;28;20321;-57
2021/11/10 11:30:35;;;;;;;;;;;;;;;;;;5054566;28;19916;-57
2021/11/10 11:33:01;;;;;;;;;;;;;;;;;;5067000;28;19916;-58
2021/11/10 11:35:30;;;;;;;;;;;;;;;;;;5066526;28;19908;-58
2021/11/10 11:37:56;;;;;;;;;;;;;;;;;;5058580;28;20024;-57
2021/11/10 11:40:22;;;;;;;;;;;;;;;;;;5057764;28;19999;-57
2021/11/10 11:42:48;;;;;;;;;;;;;;;;;;5050185;28;19970;-57
2021/11/10 11:45:15;;;;;;;;;;;;;;;;;;5046743;28;19913;-57
2021/11/10 11:47:41;;;;;;;;;;;;;;;;;;5046970;28;19916;-57
2021/11/10 11:50:07;;;;;;;;;;;;;;;;;;5055592;28;19912;-58
2021/11/10 11:52:33;;;;;;;;;;;;;;;;;;5067366;28;19915;-57
2021/11/10 11:54:59;;;;;;;;;;;;;;;;;;5062286;28;19912;-58
2021/11/10 11:57:25;;;;;;;;;;;;;;;;;;5054245;28;20434;-58
2021/11/10 11:59:51;;;;;;;;;;;;;;;;;;5053780;28;20459;-58
2021/11/10 12:02:17;;;;;;;;;;;;;;;;;;5046634;28;19920;-58
2021/11/10 12:04:43;;;;;;;;;;;;;;;;;;5063000;28;19912;-57
2021/11/10 12:07:09;;;;;;;;;;;;;;;;;;5067526;28;19916;-57
2021/11/10 12:09:34;;;;;;;;;;;;;;;;;;5067484;28;19954;-57
2021/11/10 12:12:01;;;;;;;;;;;;;;;;;;5067492;28;19920;-58
2021/11/10 12:14:27;;;;;;;;;;;;;;;;;;5067254;28;20635;-57
2021/11/10 12:16:55;;;;;;;;;;;;;;;;;;5063263;28;19955;-58
2021/11/10 12:19:21;;;;;;;;;;;;;;;;;;5056348;28;19912;-58
2021/11/10 12:21:47;;;;;;;;;;;;;;;;;;5052044;28;20346;-58
2021/11/10 12:24:13;;;;;;;;;;;;;;;;;;5050168;28;20007;-57
2021/11/10 12:26:40;;;;;;;;;;;;;;;;;;5047398;28;20350;-57
2021/11/10 12:29:07;;;;;;;;;;;;;;;;;;5049473;28;20335;-58
2021/11/10 12:31:34;;;;;;;;;;;;;;;;;;5045715;28;20106;-57
2021/11/10 12:34:01;;;;;;;;;;;;;;;;;;5052513;28;19916;-57
2021/11/10 12:36:27;;;;;;;;;;;;;;;;;;5048611;28;19917;-58
2021/11/10 12:38:53;;;;;;;;;;;;;;;;;;5046600;28;19944;-57
2021/11/10 12:41:19;;;;;;;;;;;;;;;;;;5053981;28;19916;-57
2021/11/10 12:43:47;;;;;;;;;;;;;;;;;;5057004;28;19923;-58
2021/11/10 12:46:15;;;;;;;;;;;;;;;;;;5046560;28;19920;-58
2021/11/10 12:48:41;;;;;;;;;;;;;;;;;;5057073;28;20392;-57
2021/11/10 12:51:07;;;;;;;;;;;;;;;;;;5064796;28;19913;-57
2021/11/10 12:53:33;;;;;;;;;;;;;;;;;;5046056;28;19921;-58
2021/11/10 12:56:01;;;;;;;;;;;;;;;;;;5052026;28;19912;-58
2021/11/10 12:58:27;;;;;;;;;;;;;;;;;;5054936;28;20349;-58
2021/11/10 13:00:53;;;;;;;;;;;;;;;;;;5046690;28;19912;-55
2021/11/10 13:03:19;;;;;;;;;;;;;;;;;;5045426;28;19963;-58
2021/11/10 13:05:53;;;;;;;;;;;;;;;;;;5046182;28;19909;-58
2021/11/10 13:08:29;;;;;;;;;;;;;;;;;;5045423;28;19920;-58
2021/11/10 13:10:55;;;;;;;;;;;;;;;;;;5044861;28;20407;-58
2021/11/10 13:13:22;;;;;;;;;;;;;;;;;;5044588;28;19917;-58
2021/11/10 13:15:49;;;;;;;;;;;;;;;;;;5043973;28;20291;-57
2021/11/10 13:18:15;;;;;;;;;;;;;;;;;;5045419;28;20364;-58
2021/11/10 13:20:43;;;;;;;;;;;;;;;;;;5044207;28;19920;-58
2021/11/10 13:23:09;;;;;;;;;;;;;;;;;;5045226;28;19917;-58
2021/11/10 13:25:35;;;;;;;;;;;;;;;;;;5044648;28;19948;-58
2021/11/10 13:28:04;;;;;;;;;;;;;;;;;;5047497;28;19976;-57
2021/11/10 13:30:32;;;;;;;;;;;;;;;;;;5050811;28;19960;-57
2021/11/10 13:32:57;;;;;;;;;;;;;;;;;;5048596;28;19916;-58
2021/11/10 13:35:23;;;;;;;;;;;;;;;;;;5044858;28;20023;-57
2021/11/10 13:37:49;;;;;;;;;;;;;;;;;;5044970;28;19948;-57
2021/11/10 13:40:15;;;;;;;;;;;;;;;;;;5045411;28;19915;-57
2021/11/10 13:42:41;;;;;;;;;;;;;;;;;;5045148;28;19909;-58
2021/11/10 13:45:07;;;;;;;;;;;;;;;;;;5044495;28;20000;-57
2021/11/10 13:47:35;;;;;;;;;;;;;;;;;;5045040;28;20415;-58
2021/11/10 13:50:01;;;;;;;;;;;;;;;;;;5044567;28;19943;-58
2021/11/10 13:52:27;;;;;;;;;;;;;;;;;;5044784;28;19913;-58
2021/11/10 13:54:56;;;;;;;;;;;;;;;;;;5045014;28;20292;-58
2021/11/10 13:57:23;;;;;;;;;;;;;;;;;;5044380;28;19919;-58
2021/11/10 13:59:49;;;;;;;;;;;;;;;;;;5045181;28;19909;-58
2021/11/10 14:02:15;;;;;;;;;;;;;;;;;;5045188;28;19908;-58
2021/11/10 14:04:41;;;;;;;;;;;;;;;;;;5044810;28;20320;-57
2021/11/10 14:07:07;;;;;;;;;;;;;;;;;;5047342;28;19983;-57
2021/11/10 14:09:34;;;;;;;;;;;;;;;;;;5048636;28;20442;-58
2021/11/10 14:12:00;;;;;;;;;;;;;;;;;;5048156;28;19917;-58
2021/11/10 14:14:26;;;;;;;;;;;;;;;;;;5046942;28;20004;-58
2021/11/10 14:16:53;;;;;;;;;;;;;;;;;;5048381;28;19913;-57
2021/11/10 14:19:18;;;;;;;;;;;;;;;;;;5048906;28;19924;-58
2021/11/10 14:21:44;;;;;;;;;;;;;;;;;;5048253;28;19913;-58
2021/11/10 14:24:10;;;;;;;;;;;;;;;;;;5048304;28;19939;-58
2021/11/10 14:26:37;;;;;;;;;;;;;;;;;;5048451;28;20062;-58
2021/11/10 14:29:03;;;;;;;;;;;;;;;;;;5047914;28;19913;-57
2021/11/10 14:31:29;;;;;;;;;;;;;;;;;;5048184;28;19915;-58
2021/11/10 14:33:55;;;;;;;;;;;;;;;;;;5048172;28;19931;-58
2021/11/10 14:36:21;;;;;;;;;;;;;;;;;;5047231;28;20479;-57
2021/11/10 14:38:48;;;;;;;;;;;;;;;;;;5048793;28;19913;-57
2021/11/10 14:41:15;;;;;;;;;;;;;;;;;;5047909;28;19913;-57
2021/11/10 14:43:46;;;;;;;;;;;;;;;;;;5047812;28;19916;-57
2021/11/10 14:46:16;;;;;;;;;;;;;;;;;;5047672;28;19943;-57
2021/11/10 14:48:42;;;;;;;;;;;;;;;;;;5047974;28;19948;-57
2021/11/10 14:51:08;;;;;;;;;;;;;;;;;;5047754;28;20398;-57
2021/11/10 14:53:37;;;;;;;;;;;;;;;;;;5047800;28;20015;-58
2021/11/10 14:56:03;;;;;;;;;;;;;;;;;;5047143;28;19917;-58
2021/11/10 14:58:30;;;;;;;;;;;;;;;;;;5047533;28;20407;-58
2021/11/10 15:00:56;;;;;;;;;;;;;;;;;;5047723;28;19912;-58
2021/11/10 15:03:22;;;;;;;;;;;;;;;;;;5047721;28;20434;-57
2021/11/10 15:05:48;;;;;;;;;;;;;;;;;;5047916;28;19917;-58
2021/11/10 15:08:15;;;;;;;;;;;;;;;;;;5047444;28;19991;-58
2021/11/10 15:10:41;;;;;;;;;;;;;;;;;;5047192;28;20000;-58
2021/11/10 15:13:08;;;;;;;;;;;;;;;;;;5047352;28;20011;-57
2021/11/10 15:15:34;;;;;;;;;;;;;;;;;;5047498;28;19909;-58
2021/11/10 15:17:59;;;;;;;;;;;;;;;;;;5046562;28;19905;-57
2021/11/10 15:20:25;;;;;;;;;;;;;;;;;;5046848;28;20304;-57
2021/11/10 15:22:56;;;;;;;;;;;;;;;;;;5047472;28;19951;-57
2021/11/10 15:25:22;;;;;;;;;;;;;;;;;;5046832;28;20000;-58
2021/11/10 15:27:49;;;;;;;;;;;;;;;;;;5047622;28;20034;-58
2021/11/10 15:30:15;;;;;;;;;;;;;;;;;;5047517;28;19912;-57
2021/11/10 15:32:41;;;;;;;;;;;;;;;;;;5047103;28;20393;-58
2021/11/10 15:35:07;;;;;;;;;;;;;;;;;;5046561;28;19915;-58
2021/11/10 15:37:37;;;;;;;;;;;;;;;;;;5047011;28;19967;-57
2021/11/10 15:40:03;;;;;;;;;;;;;;;;;;5046807;28;19971;-57
2021/11/10 15:42:29;;;;;;;;;;;;;;;;;;5046789;28;19909;-57
2021/11/10 15:44:55;;;;;;;;;;;;;;;;;;5046839;28;19919;-57
2021/11/10 15:47:20;;;;;;;;;;;;;;;;;;5046680;28;19908;-57
2021/11/10 15:49:46;;;;;;;;;;;;;;;;;;5047321;28;19947;-57
2021/11/10 15:52:12;;;;;;;;;;;;;;;;;;5046949;28;20004;-58
2021/11/10 15:54:39;;;;;;;;;;;;;;;;;;5052358;28;19917;-57
2021/11/10 15:57:05;;;;;;;;;;;;;;;;;;5050147;28;20487;-57
2021/11/10 15:59:31;;;;;;;;;;;;;;;;;;5062750;28;19913;-57
2021/11/10 16:01:57;;;;;;;;;;;;;;;;;;5052757;28;19921;-57
2021/11/10 16:04:25;;;;;;;;;;;;;;;;;;5061818;28;20374;-58
2021/11/10 16:06:51;;;;;;;;;;;;;;;;;;5072834;28;19912;-57
2021/11/10 16:09:18;;;;;;;;;;;;;;;;;;5071418;28;20501;-57
2021/11/10 16:11:45;;;;;;;;;;;;;;;;;;5062740;28;19924;-58
2021/11/10 16:14:11;;;;;;;;;;;;;;;;;;5084693;28;19946;-57
2021/11/10 16:16:37;;;;;;;;;;;;;;;;;;5046148;28;20327;-57
2021/11/10 16:19:03;;;;;;;;;;;;;;;;;;5059978;28;19917;-57
2021/11/10 16:21:29;;;;;;;;;;;;;;;;;;5065744;28;19915;-57
2021/11/10 16:23:55;;;;;;;;;;;;;;;;;;5065880;28;20295;-57
2021/11/10 16:26:21;;;;;;;;;;;;;;;;;;5064439;28;20391;-57
2021/11/10 16:28:59;;;;;;;;;;;;;;;;;;5086545;28;19912;-57
2021/11/10 16:34:09;;;;;;;;;;;;;;;;;;5085597;28;20322;-58
2021/11/10 16:36:37;;;;;;;;;;;;;;;;;;5085928;28;19912;-57
2021/11/10 16:39:03;;;;;;;;;;;;;;;;;;5085531;28;19918;-57
2021/11/10 16:41:29;;;;;;;;;;;;;;;;;;5081577;28;19912;-57